sensor_id;sensor_type;location;lat;lon;timestamp;noise_LAeq;noise_LA_min;noise_LA_max;noise_LA01;noise_LA95
64077;Laerm;51039;49.696;10.808;2023-09-07T07:39:02;59.15;5.00;95.24;;
64077;Laerm;51039;49.696;10.808;2023-09-07T07:41:28;45.86;43.27;52.86;;
64077;Laerm;51039;49.696;10.808;2023-09-07T07:43:54;44.55;43.05;47.55;;
64077;Laerm;51039;49.696;10.808;2023-09-07T07:46:19;44.58;42.95;49.19;;
64077;Laerm;51039;49.696;10.808;2023-09-07T07:48:44;44.66;43.20;48.14;;
64077;Laerm;51039;49.696;10.808;2023-09-07T07:51:10;44.73;43.13;50.67;;
64077;Laerm;51039;49.696;10.808;2023-09-07T07:53:35;44.81;43.09;49.01;;
64077;Laerm;51039;49.696;10.808;2023-09-07T07:56:00;44.43;42.90;47.73;;
64077;Laerm;51039;49.696;10.808;2023-09-07T07:58:26;44.40;42.47;48.15;;
64077;Laerm;51039;49.696;10.808;2023-09-07T08:00:51;44.36;42.89;49.66;;
64077;Laerm;51039;49.696;10.808;2023-09-07T08:03:16;44.38;43.03;49.06;;
64077;Laerm;51039;49.696;10.808;2023-09-07T08:05:42;44.32;42.63;48.07;;
64077;Laerm;51039;49.696;10.808;2023-09-07T08:08:08;44.18;42.58;47.74;;
64077;Laerm;51039;49.696;10.808;2023-09-07T08:10:37;44.16;42.75;46.35;;
64077;Laerm;51039;49.696;10.808;2023-09-07T08:13:02;44.18;42.46;47.62;;
64077;Laerm;51039;49.696;10.808;2023-09-07T08:15:29;44.07;42.50;47.35;;
64077;Laerm;51039;49.696;10.808;2023-09-07T08:17:54;44.04;42.36;46.55;;
64077;Laerm;51039;49.696;10.808;2023-09-07T08:20:20;43.96;42.47;46.91;;
64077;Laerm;51039;49.696;10.808;2023-09-07T08:22:45;43.99;42.62;48.21;;
64077;Laerm;51039;49.696;10.808;2023-09-07T08:25:12;43.99;42.55;47.42;;
64077;Laerm;51039;49.696;10.808;2023-09-07T08:27:41;43.96;42.13;47.93;;
64077;Laerm;51039;49.696;10.808;2023-09-07T08:30:15;44.12;42.49;52.74;;
64077;Laerm;51039;49.696;10.808;2023-09-07T08:32:42;44.02;42.33;53.26;;
64077;Laerm;51039;49.696;10.808;2023-09-07T08:35:10;43.79;42.38;46.79;;
64077;Laerm;51039;49.696;10.808;2023-09-07T08:37:39;43.77;42.11;56.63;;
64077;Laerm;51039;49.696;10.808;2023-09-07T08:40:05;43.67;42.01;50.31;;
64077;Laerm;51039;49.696;10.808;2023-09-07T08:42:32;43.97;42.18;49.26;;
64077;Laerm;51039;49.696;10.808;2023-09-07T08:45:00;43.90;42.08;50.73;;
64077;Laerm;51039;49.696;10.808;2023-09-07T08:47:28;43.69;42.17;48.26;;
64077;Laerm;51039;49.696;10.808;2023-09-07T08:49:56;43.59;42.03;46.02;;
64077;Laerm;51039;49.696;10.808;2023-09-07T08:52:22;43.52;41.92;46.44;;
64077;Laerm;51039;49.696;10.808;2023-09-07T08:54:48;43.58;42.04;46.33;;
64077;Laerm;51039;49.696;10.808;2023-09-07T08:57:13;43.70;42.15;47.18;;
64077;Laerm;51039;49.696;10.808;2023-09-07T08:59:39;43.48;41.94;44.94;;
64077;Laerm;51039;49.696;10.808;2023-09-07T09:02:09;43.43;41.89;46.86;;
64077;Laerm;51039;49.696;10.808;2023-09-07T09:04:34;43.54;41.72;45.02;;
64077;Laerm;51039;49.696;10.808;2023-09-07T09:07:00;43.41;41.82;49.25;;
64077;Laerm;51039;49.696;10.808;2023-09-07T09:09:28;43.24;41.79;44.94;;
64077;Laerm;51039;49.696;10.808;2023-09-07T09:11:54;43.07;41.43;47.74;;
64077;Laerm;51039;49.696;10.808;2023-09-07T09:14:19;42.98;41.44;44.34;;
64077;Laerm;51039;49.696;10.808;2023-09-07T09:16:50;42.97;41.35;44.93;;
64077;Laerm;51039;49.696;10.808;2023-09-07T09:19:16;42.99;41.39;47.31;;
64077;Laerm;51039;49.696;10.808;2023-09-07T09:21:44;42.99;41.24;48.43;;
64077;Laerm;51039;49.696;10.808;2023-09-07T09:24:10;43.01;41.08;44.44;;
64077;Laerm;51039;49.696;10.808;2023-09-07T09:26:38;43.11;41.65;45.55;;
64077;Laerm;51039;49.696;10.808;2023-09-07T09:29:03;43.13;41.58;48.86;;
64077;Laerm;51039;49.696;10.808;2023-09-07T09:31:30;42.97;40.91;45.96;;
64077;Laerm;51039;49.696;10.808;2023-09-07T09:33:55;43.01;41.62;46.21;;
64077;Laerm;51039;49.696;10.808;2023-09-07T09:36:21;42.96;41.39;44.72;;
64077;Laerm;51039;49.696;10.808;2023-09-07T09:38:51;42.86;41.47;46.90;;
64077;Laerm;51039;49.696;10.808;2023-09-07T09:41:19;42.70;41.12;44.14;;
64077;Laerm;51039;49.696;10.808;2023-09-07T09:43:46;42.73;41.15;44.56;;
64077;Laerm;51039;49.696;10.808;2023-09-07T09:46:14;42.85;41.25;44.35;;
64077;Laerm;51039;49.696;10.808;2023-09-07T09:48:41;42.51;41.04;44.20;;
64077;Laerm;51039;49.696;10.808;2023-09-07T09:51:07;42.36;40.71;43.88;;
64077;Laerm;51039;49.696;10.808;2023-09-07T09:53:33;42.46;40.90;43.96;;
64077;Laerm;51039;49.696;10.808;2023-09-07T09:55:58;42.55;41.08;49.59;;
64077;Laerm;51039;49.696;10.808;2023-09-07T09:58:24;42.63;41.01;44.91;;
64077;Laerm;51039;49.696;10.808;2023-09-07T10:00:54;42.53;41.04;43.94;;
64077;Laerm;51039;49.696;10.808;2023-09-07T10:03:24;42.43;40.88;43.81;;
64077;Laerm;51039;49.696;10.808;2023-09-07T10:05:52;42.36;40.87;47.81;;
64077;Laerm;51039;49.696;10.808;2023-09-07T10:08:18;42.30;40.76;44.68;;
64077;Laerm;51039;49.696;10.808;2023-09-07T10:10:47;42.32;40.84;43.99;;
64077;Laerm;51039;49.696;10.808;2023-09-07T10:13:16;42.39;40.61;43.76;;
64077;Laerm;51039;49.696;10.808;2023-09-07T10:15:42;42.38;40.84;46.20;;
64077;Laerm;51039;49.696;10.808;2023-09-07T10:18:16;42.38;40.97;44.56;;
64077;Laerm;51039;49.696;10.808;2023-09-07T10:20:55;42.31;40.63;45.51;;
64077;Laerm;51039;49.696;10.808;2023-09-07T10:23:22;42.33;40.90;43.74;;
64077;Laerm;51039;49.696;10.808;2023-09-07T10:25:50;42.31;40.66;43.80;;
64077;Laerm;51039;49.696;10.808;2023-09-07T10:30:44;42.28;40.76;43.81;;
64077;Laerm;51039;49.696;10.808;2023-09-07T10:33:22;42.28;40.79;43.67;;
64077;Laerm;51039;49.696;10.808;2023-09-07T10:35:47;42.22;40.54;43.59;;
64077;Laerm;51039;49.696;10.808;2023-09-07T10:38:13;42.09;40.62;43.56;;
64077;Laerm;51039;49.696;10.808;2023-09-07T10:40:39;42.04;40.44;43.26;;
64077;Laerm;51039;49.696;10.808;2023-09-07T10:43:05;42.11;40.63;43.39;;
64077;Laerm;51039;49.696;10.808;2023-09-07T10:45:30;42.17;40.61;44.01;;
64077;Laerm;51039;49.696;10.808;2023-09-07T10:47:55;42.18;40.26;43.90;;
64077;Laerm;51039;49.696;10.808;2023-09-07T10:50:21;42.19;40.66;43.80;;
64077;Laerm;51039;49.696;10.808;2023-09-07T10:52:46;42.26;40.95;44.67;;
64077;Laerm;51039;49.696;10.808;2023-09-07T10:55:11;42.39;40.91;44.03;;
64077;Laerm;51039;49.696;10.808;2023-09-07T10:57:44;42.38;40.88;44.64;;
64077;Laerm;51039;49.696;10.808;2023-09-07T11:00:10;42.45;40.67;45.09;;
64077;Laerm;51039;49.696;10.808;2023-09-07T11:02:40;42.43;40.93;44.33;;
64077;Laerm;51039;49.696;10.808;2023-09-07T11:05:06;42.45;41.03;44.27;;
64077;Laerm;51039;49.696;10.808;2023-09-07T11:07:32;42.48;40.99;44.55;;
64077;Laerm;51039;49.696;10.808;2023-09-07T11:09:58;42.44;40.63;43.83;;
64077;Laerm;51039;49.696;10.808;2023-09-07T11:12:23;42.41;40.88;44.46;;
64077;Laerm;51039;49.696;10.808;2023-09-07T11:14:48;42.31;40.68;44.02;;
64077;Laerm;51039;49.696;10.808;2023-09-07T11:17:13;42.39;40.97;43.73;;
64077;Laerm;51039;49.696;10.808;2023-09-07T11:19:39;42.48;40.81;45.99;;
64077;Laerm;51039;49.696;10.808;2023-09-07T11:22:05;42.48;40.86;43.90;;
64077;Laerm;51039;49.696;10.808;2023-09-07T11:24:32;42.51;40.89;44.97;;
64077;Laerm;51039;49.696;10.808;2023-09-07T11:26:57;42.57;41.09;44.04;;
64077;Laerm;51039;49.696;10.808;2023-09-07T11:29:22;42.64;40.79;44.06;;
64077;Laerm;51039;49.696;10.808;2023-09-07T11:31:48;42.67;41.23;44.27;;
64077;Laerm;51039;49.696;10.808;2023-09-07T11:34:15;42.70;41.15;44.77;;
64077;Laerm;51039;49.696;10.808;2023-09-07T11:36:41;42.74;41.31;44.10;;
64077;Laerm;51039;49.696;10.808;2023-09-07T11:39:07;42.80;41.27;44.15;;
64077;Laerm;51039;49.696;10.808;2023-09-07T11:41:41;42.75;41.38;46.16;;
64077;Laerm;51039;49.696;10.808;2023-09-07T11:44:07;42.81;41.32;45.36;;
64077;Laerm;51039;49.696;10.808;2023-09-07T11:46:33;42.79;41.07;44.20;;
64077;Laerm;51039;49.696;10.808;2023-09-07T11:48:58;42.76;41.03;43.96;;
64077;Laerm;51039;49.696;10.808;2023-09-07T11:51:24;42.80;41.40;44.73;;
64077;Laerm;51039;49.696;10.808;2023-09-07T11:53:49;42.86;41.40;44.27;;
64077;Laerm;51039;49.696;10.808;2023-09-07T11:56:14;42.84;41.58;44.77;;
64077;Laerm;51039;49.696;10.808;2023-09-07T11:58:39;42.88;41.41;49.68;;
64077;Laerm;51039;49.696;10.808;2023-09-07T12:01:05;42.94;41.58;47.08;;
64077;Laerm;51039;49.696;10.808;2023-09-07T12:03:31;42.92;41.15;44.36;;
64077;Laerm;51039;49.696;10.808;2023-09-07T12:05:58;42.94;41.22;45.98;;
64077;Laerm;51039;49.696;10.808;2023-09-07T12:08:23;42.95;41.42;44.45;;
64077;Laerm;51039;49.696;10.808;2023-09-07T12:10:48;42.95;41.38;45.08;;
64077;Laerm;51039;49.696;10.808;2023-09-07T12:13:14;42.96;41.59;46.63;;
64077;Laerm;51039;49.696;10.808;2023-09-07T12:15:39;42.99;41.36;45.44;;
64077;Laerm;51039;49.696;10.808;2023-09-07T12:18:04;43.05;41.65;44.43;;
64077;Laerm;51039;49.696;10.808;2023-09-07T12:20:29;43.11;41.55;44.58;;
64077;Laerm;51039;49.696;10.808;2023-09-07T12:22:55;43.05;41.63;44.49;;
64077;Laerm;51039;49.696;10.808;2023-09-07T12:25:20;43.06;41.63;45.42;;
64077;Laerm;51039;49.696;10.808;2023-09-07T12:27:45;43.07;41.66;44.74;;
64077;Laerm;51039;49.696;10.808;2023-09-07T12:30:12;43.08;41.71;44.57;;
64077;Laerm;51039;49.696;10.808;2023-09-07T12:32:39;43.11;41.29;44.62;;
64077;Laerm;51039;49.696;10.808;2023-09-07T12:35:05;43.10;41.69;44.69;;
64077;Laerm;51039;49.696;10.808;2023-09-07T12:37:34;43.11;41.80;44.53;;
64077;Laerm;51039;49.696;10.808;2023-09-07T12:39:59;43.10;41.68;44.38;;
64077;Laerm;51039;49.696;10.808;2023-09-07T12:42:25;43.10;41.52;44.49;;
64077;Laerm;51039;49.696;10.808;2023-09-07T12:44:50;43.11;41.62;44.59;;
64077;Laerm;51039;49.696;10.808;2023-09-07T12:47:15;43.12;41.63;46.75;;
64077;Laerm;51039;49.696;10.808;2023-09-07T12:49:40;43.09;41.65;44.57;;
64077;Laerm;51039;49.696;10.808;2023-09-07T12:52:07;43.08;41.41;44.98;;
64077;Laerm;51039;49.696;10.808;2023-09-07T12:54:34;43.11;41.64;44.47;;
64077;Laerm;51039;49.696;10.808;2023-09-07T12:57:01;43.09;41.69;44.37;;
64077;Laerm;51039;49.696;10.808;2023-09-07T12:59:26;42.99;41.25;46.91;;
64077;Laerm;51039;49.696;10.808;2023-09-07T13:01:51;42.96;41.50;44.70;;
64077;Laerm;51039;49.696;10.808;2023-09-07T13:04:18;42.90;41.12;44.61;;
64077;Laerm;51039;49.696;10.808;2023-09-07T13:06:44;42.93;41.12;47.42;;
64077;Laerm;51039;49.696;10.808;2023-09-07T13:09:10;42.96;41.54;44.14;;
64077;Laerm;51039;49.696;10.808;2023-09-07T13:11:36;42.90;41.47;44.29;;
64077;Laerm;51039;49.696;10.808;2023-09-07T13:14:01;42.85;41.19;44.93;;
64077;Laerm;51039;49.696;10.808;2023-09-07T13:16:27;42.84;41.42;45.57;;
64077;Laerm;51039;49.696;10.808;2023-09-07T13:18:52;42.78;41.21;44.89;;
64077;Laerm;51039;49.696;10.808;2023-09-07T13:21:17;42.85;41.31;44.20;;
64077;Laerm;51039;49.696;10.808;2023-09-07T13:23:42;42.80;41.38;45.84;;
64077;Laerm;51039;49.696;10.808;2023-09-07T13:26:08;42.85;41.36;44.14;;
64077;Laerm;51039;49.696;10.808;2023-09-07T13:28:33;42.79;41.38;44.22;;
64077;Laerm;51039;49.696;10.808;2023-09-07T13:30:59;42.76;41.46;44.24;;
64077;Laerm;51039;49.696;10.808;2023-09-07T13:33:24;42.69;41.12;44.14;;
64077;Laerm;51039;49.696;10.808;2023-09-07T13:35:50;42.70;41.25;44.01;;
64077;Laerm;51039;49.696;10.808;2023-09-07T13:38:15;42.71;41.30;44.12;;
64077;Laerm;51039;49.696;10.808;2023-09-07T13:40:41;42.73;41.26;44.41;;
64077;Laerm;51039;49.696;10.808;2023-09-07T13:43:06;42.70;41.40;46.57;;
64077;Laerm;51039;49.696;10.808;2023-09-07T13:45:31;42.61;41.12;44.17;;
64077;Laerm;51039;49.696;10.808;2023-09-07T13:47:57;42.57;40.92;43.97;;
64077;Laerm;51039;49.696;10.808;2023-09-07T13:50:22;42.57;40.96;44.41;;
64077;Laerm;51039;49.696;10.808;2023-09-07T13:52:48;42.57;41.19;44.17;;
64077;Laerm;51039;49.696;10.808;2023-09-07T13:55:14;42.55;41.19;45.50;;
64077;Laerm;51039;49.696;10.808;2023-09-07T13:57:39;42.56;40.98;44.87;;
64077;Laerm;51039;49.696;10.808;2023-09-07T14:00:05;42.58;41.14;43.87;;
64077;Laerm;51039;49.696;10.808;2023-09-07T14:02:31;42.51;41.13;46.66;;
64077;Laerm;51039;49.696;10.808;2023-09-07T14:04:57;42.53;41.12;43.90;;
64077;Laerm;51039;49.696;10.808;2023-09-07T14:07:23;42.55;40.97;48.38;;
64077;Laerm;51039;49.696;10.808;2023-09-07T14:09:51;42.46;41.02;44.12;;
64077;Laerm;51039;49.696;10.808;2023-09-07T14:12:16;42.46;41.04;45.95;;
64077;Laerm;51039;49.696;10.808;2023-09-07T14:14:42;42.47;41.06;43.94;;
64077;Laerm;51039;49.696;10.808;2023-09-07T14:17:07;42.52;41.10;44.94;;
64077;Laerm;51039;49.696;10.808;2023-09-07T14:19:32;42.50;40.81;44.18;;
64077;Laerm;51039;49.696;10.808;2023-09-07T14:21:58;42.49;41.04;44.35;;
64077;Laerm;51039;49.696;10.808;2023-09-07T14:24:24;42.47;40.69;43.70;;
64077;Laerm;51039;49.696;10.808;2023-09-07T14:26:49;42.44;40.47;45.62;;
64077;Laerm;51039;49.696;10.808;2023-09-07T14:29:15;42.46;40.98;44.91;;
64077;Laerm;51039;49.696;10.808;2023-09-07T14:31:40;42.46;40.93;44.72;;
64077;Laerm;51039;49.696;10.808;2023-09-07T14:34:07;42.49;41.07;44.46;;
64077;Laerm;51039;49.696;10.808;2023-09-07T14:36:33;42.52;41.08;44.41;;
64077;Laerm;51039;49.696;10.808;2023-09-07T14:38:58;42.56;41.08;45.21;;
64077;Laerm;51039;49.696;10.808;2023-09-07T14:41:23;42.52;40.57;45.75;;
64077;Laerm;51039;49.696;10.808;2023-09-07T14:43:49;42.45;41.17;44.02;;
64077;Laerm;51039;49.696;10.808;2023-09-07T14:46:15;42.46;40.67;44.12;;
64077;Laerm;51039;49.696;10.808;2023-09-07T14:48:40;42.44;40.64;43.89;;
64077;Laerm;51039;49.696;10.808;2023-09-07T14:51:06;42.41;40.88;43.90;;
64077;Laerm;51039;49.696;10.808;2023-09-07T14:53:31;42.39;41.04;44.08;;
64077;Laerm;51039;49.696;10.808;2023-09-07T14:55:56;42.42;40.84;43.94;;
64077;Laerm;51039;49.696;10.808;2023-09-07T14:58:22;42.36;40.78;43.78;;
64077;Laerm;51039;49.696;10.808;2023-09-07T15:00:47;42.29;40.56;44.16;;
64077;Laerm;51039;49.696;10.808;2023-09-07T15:03:12;42.25;40.73;43.59;;
64077;Laerm;51039;49.696;10.808;2023-09-07T15:05:38;42.26;40.79;43.79;;
64077;Laerm;51039;49.696;10.808;2023-09-07T15:08:03;42.23;40.74;45.58;;
64077;Laerm;51039;49.696;10.808;2023-09-07T15:10:29;42.20;40.59;43.60;;
64077;Laerm;51039;49.696;10.808;2023-09-07T15:12:55;42.25;40.88;45.54;;
64077;Laerm;51039;49.696;10.808;2023-09-07T15:15:20;42.24;40.87;45.14;;
64077;Laerm;51039;49.696;10.808;2023-09-07T15:17:49;42.25;40.76;44.52;;
64077;Laerm;51039;49.696;10.808;2023-09-07T15:20:14;42.30;40.79;45.04;;
64077;Laerm;51039;49.696;10.808;2023-09-07T15:22:39;42.26;40.90;44.05;;
64077;Laerm;51039;49.696;10.808;2023-09-07T15:25:05;42.25;40.52;45.57;;
64077;Laerm;51039;49.696;10.808;2023-09-07T15:27:30;42.20;40.60;47.15;;
64077;Laerm;51039;49.696;10.808;2023-09-07T15:29:56;42.18;40.87;46.14;;
64077;Laerm;51039;49.696;10.808;2023-09-07T15:32:21;42.14;40.52;45.20;;
64077;Laerm;51039;49.696;10.808;2023-09-07T15:34:46;42.12;40.69;43.72;;
64077;Laerm;51039;49.696;10.808;2023-09-07T15:37:12;42.12;40.51;44.47;;
64077;Laerm;51039;49.696;10.808;2023-09-07T15:39:37;42.09;40.28;43.63;;
64077;Laerm;51039;49.696;10.808;2023-09-07T15:42:02;42.06;40.40;43.36;;
64077;Laerm;51039;49.696;10.808;2023-09-07T15:44:28;42.08;40.35;43.61;;
64077;Laerm;51039;49.696;10.808;2023-09-07T15:46:55;42.13;40.62;43.44;;
64077;Laerm;51039;49.696;10.808;2023-09-07T15:49:21;42.14;40.56;43.42;;
64077;Laerm;51039;49.696;10.808;2023-09-07T15:51:46;42.11;40.49;43.47;;
64077;Laerm;51039;49.696;10.808;2023-09-07T15:54:12;42.12;40.60;43.41;;
64077;Laerm;51039;49.696;10.808;2023-09-07T15:56:37;42.14;40.80;44.73;;
64077;Laerm;51039;49.696;10.808;2023-09-07T15:59:02;42.15;40.75;44.51;;
64077;Laerm;51039;49.696;10.808;2023-09-07T16:01:28;42.19;40.71;43.82;;
64077;Laerm;51039;49.696;10.808;2023-09-07T16:03:53;42.20;40.73;43.64;;
64077;Laerm;51039;49.696;10.808;2023-09-07T16:06:19;42.18;40.57;43.44;;
64077;Laerm;51039;49.696;10.808;2023-09-07T16:08:44;42.17;40.85;43.90;;
64077;Laerm;51039;49.696;10.808;2023-09-07T16:11:09;42.17;40.65;43.68;;
64077;Laerm;51039;49.696;10.808;2023-09-07T16:13:35;42.14;40.51;43.77;;
64077;Laerm;51039;49.696;10.808;2023-09-07T16:16:01;42.15;40.47;43.69;;
64077;Laerm;51039;49.696;10.808;2023-09-07T16:18:26;42.13;40.80;43.44;;
64077;Laerm;51039;49.696;10.808;2023-09-07T16:20:52;42.09;40.34;43.61;;
64077;Laerm;51039;49.696;10.808;2023-09-07T16:23:17;42.09;40.39;45.69;;
64077;Laerm;51039;49.696;10.808;2023-09-07T16:25:42;42.10;40.63;44.04;;
64077;Laerm;51039;49.696;10.808;2023-09-07T16:28:08;42.10;40.69;43.32;;
64077;Laerm;51039;49.696;10.808;2023-09-07T16:30:33;42.11;40.31;43.45;;
64077;Laerm;51039;49.696;10.808;2023-09-07T16:32:58;42.12;40.65;43.44;;
64077;Laerm;51039;49.696;10.808;2023-09-07T16:35:24;42.14;40.65;45.03;;
64077;Laerm;51039;49.696;10.808;2023-09-07T16:37:49;42.13;40.29;43.70;;
64077;Laerm;51039;49.696;10.808;2023-09-07T16:40:14;42.11;40.65;45.53;;
64077;Laerm;51039;49.696;10.808;2023-09-07T16:42:41;42.10;40.73;43.61;;
64077;Laerm;51039;49.696;10.808;2023-09-07T16:45:07;42.10;40.59;43.40;;
64077;Laerm;51039;49.696;10.808;2023-09-07T16:47:32;42.11;40.57;43.66;;
64077;Laerm;51039;49.696;10.808;2023-09-07T16:49:58;42.10;40.71;43.96;;
64077;Laerm;51039;49.696;10.808;2023-09-07T16:52:23;42.12;40.45;44.06;;
64077;Laerm;51039;49.696;10.808;2023-09-07T16:54:48;42.10;40.64;43.62;;
64077;Laerm;51039;49.696;10.808;2023-09-07T16:57:13;42.12;40.70;43.38;;
64077;Laerm;51039;49.696;10.808;2023-09-07T16:59:39;42.10;40.33;43.34;;
64077;Laerm;51039;49.696;10.808;2023-09-07T17:02:04;42.10;40.30;45.42;;
64077;Laerm;51039;49.696;10.808;2023-09-07T17:04:34;42.12;40.72;44.09;;
64077;Laerm;51039;49.696;10.808;2023-09-07T17:07:01;42.13;40.66;43.47;;
64077;Laerm;51039;49.696;10.808;2023-09-07T17:09:28;42.13;40.63;43.55;;
64077;Laerm;51039;49.696;10.808;2023-09-07T17:11:54;42.13;40.80;43.43;;
64077;Laerm;51039;49.696;10.808;2023-09-07T17:14:19;42.16;40.75;43.45;;
64077;Laerm;51039;49.696;10.808;2023-09-07T17:16:45;42.18;40.79;43.55;;
64077;Laerm;51039;49.696;10.808;2023-09-07T17:19:10;42.19;40.80;43.82;;
64077;Laerm;51039;49.696;10.808;2023-09-07T17:21:35;42.21;40.60;43.99;;
64077;Laerm;51039;49.696;10.808;2023-09-07T17:24:01;42.21;40.60;44.43;;
64077;Laerm;51039;49.696;10.808;2023-09-07T17:26:26;42.21;40.65;47.02;;
64077;Laerm;51039;49.696;10.808;2023-09-07T17:28:51;42.23;40.63;43.79;;
64077;Laerm;51039;49.696;10.808;2023-09-07T17:31:17;42.25;40.79;43.66;;
64077;Laerm;51039;49.696;10.808;2023-09-07T17:33:46;42.25;40.69;43.53;;
64077;Laerm;51039;49.696;10.808;2023-09-07T17:36:18;42.30;40.82;44.04;;
64077;Laerm;51039;49.696;10.808;2023-09-07T17:38:44;42.32;40.87;43.79;;
64077;Laerm;51039;49.696;10.808;2023-09-07T17:41:10;42.34;40.71;46.36;;
64077;Laerm;51039;49.696;10.808;2023-09-07T17:43:37;42.36;40.91;43.87;;
64077;Laerm;51039;49.696;10.808;2023-09-07T17:46:02;42.38;40.99;43.78;;
64077;Laerm;51039;49.696;10.808;2023-09-07T17:48:28;42.39;40.85;43.69;;
64077;Laerm;51039;49.696;10.808;2023-09-07T17:50:53;42.43;40.78;46.11;;
64077;Laerm;51039;49.696;10.808;2023-09-07T17:53:18;42.46;40.93;43.80;;
64077;Laerm;51039;49.696;10.808;2023-09-07T17:55:43;42.50;40.92;43.90;;
64077;Laerm;51039;49.696;10.808;2023-09-07T17:58:09;42.54;40.83;44.07;;
64077;Laerm;51039;49.696;10.808;2023-09-07T18:00:35;42.56;41.01;44.50;;
64077;Laerm;51039;49.696;10.808;2023-09-07T18:03:00;42.60;41.08;43.98;;
64077;Laerm;51039;49.696;10.808;2023-09-07T18:05:29;42.65;41.24;44.57;;
64077;Laerm;51039;49.696;10.808;2023-09-07T18:07:54;42.69;41.22;44.22;;
64077;Laerm;51039;49.696;10.808;2023-09-07T18:10:19;42.71;41.20;44.19;;
64077;Laerm;51039;49.696;10.808;2023-09-07T18:12:45;42.76;41.20;44.16;;
64077;Laerm;51039;49.696;10.808;2023-09-07T18:15:10;42.80;41.39;44.21;;
64077;Laerm;51039;49.696;10.808;2023-09-07T18:17:35;42.85;41.12;44.20;;
64077;Laerm;51039;49.696;10.808;2023-09-07T18:20:05;42.88;41.30;44.27;;
64077;Laerm;51039;49.696;10.808;2023-09-07T18:22:31;42.95;41.46;44.18;;
64077;Laerm;51039;49.696;10.808;2023-09-07T18:24:57;42.98;41.41;44.37;;
64077;Laerm;51039;49.696;10.808;2023-09-07T18:27:25;43.06;41.68;44.87;;
64077;Laerm;51039;49.696;10.808;2023-09-07T18:29:50;43.15;41.67;45.62;;
64077;Laerm;51039;49.696;10.808;2023-09-07T18:32:16;43.24;41.94;45.52;;
64077;Laerm;51039;49.696;10.808;2023-09-07T18:34:41;43.29;41.85;44.80;;
64077;Laerm;51039;49.696;10.808;2023-09-07T18:37:07;43.36;41.80;44.76;;
64077;Laerm;51039;49.696;10.808;2023-09-07T18:39:32;43.39;41.83;44.70;;
64077;Laerm;51039;49.696;10.808;2023-09-07T18:41:57;43.45;41.94;46.71;;
64077;Laerm;51039;49.696;10.808;2023-09-07T18:44:23;43.50;42.14;45.93;;
64077;Laerm;51039;49.696;10.808;2023-09-07T18:46:48;43.53;42.02;45.96;;
64077;Laerm;51039;49.696;10.808;2023-09-07T18:49:13;43.56;42.14;46.62;;
64077;Laerm;51039;49.696;10.808;2023-09-07T18:51:39;43.60;42.15;45.99;;
64077;Laerm;51039;49.696;10.808;2023-09-07T18:54:04;43.67;42.03;44.98;;
64077;Laerm;51039;49.696;10.808;2023-09-07T18:56:29;43.73;42.19;45.46;;
64077;Laerm;51039;49.696;10.808;2023-09-07T18:58:55;43.77;42.38;46.11;;
64077;Laerm;51039;49.696;10.808;2023-09-07T19:01:21;43.81;42.48;45.15;;
64077;Laerm;51039;49.696;10.808;2023-09-07T19:03:50;43.85;42.26;45.16;;
64077;Laerm;51039;49.696;10.808;2023-09-07T19:06:16;43.91;42.57;47.56;;
64077;Laerm;51039;49.696;10.808;2023-09-07T19:08:41;43.95;42.38;46.66;;
64077;Laerm;51039;49.696;10.808;2023-09-07T19:11:07;43.97;42.67;45.67;;
64077;Laerm;51039;49.696;10.808;2023-09-07T19:13:32;44.03;42.43;46.49;;
64077;Laerm;51039;49.696;10.808;2023-09-07T19:15:58;44.07;42.42;46.21;;
64077;Laerm;51039;49.696;10.808;2023-09-07T19:18:24;44.14;42.70;46.20;;
64077;Laerm;51039;49.696;10.808;2023-09-07T19:20:53;44.17;42.82;46.46;;
64077;Laerm;51039;49.696;10.808;2023-09-07T19:23:19;44.20;42.78;45.51;;
64077;Laerm;51039;49.696;10.808;2023-09-07T19:25:44;44.26;43.00;45.58;;
64077;Laerm;51039;49.696;10.808;2023-09-07T19:28:09;44.29;42.84;47.20;;
64077;Laerm;51039;49.696;10.808;2023-09-07T19:30:35;44.34;42.65;45.53;;
64077;Laerm;51039;49.696;10.808;2023-09-07T19:33:00;44.37;42.93;45.68;;
64077;Laerm;51039;49.696;10.808;2023-09-07T19:35:25;44.41;42.89;46.10;;
64077;Laerm;51039;49.696;10.808;2023-09-07T19:37:51;44.44;42.86;45.61;;
64077;Laerm;51039;49.696;10.808;2023-09-07T19:40:18;44.48;42.92;46.80;;
64077;Laerm;51039;49.696;10.808;2023-09-07T19:42:44;44.52;42.87;48.36;;
64077;Laerm;51039;49.696;10.808;2023-09-07T19:45:09;44.54;43.12;45.81;;
64077;Laerm;51039;49.696;10.808;2023-09-07T19:47:35;44.57;43.20;46.53;;
64077;Laerm;51039;49.696;10.808;2023-09-07T19:50:00;44.59;43.30;46.09;;
64077;Laerm;51039;49.696;10.808;2023-09-07T19:52:25;44.63;43.07;47.00;;
64077;Laerm;51039;49.696;10.808;2023-09-07T19:54:50;44.66;43.25;48.14;;
64077;Laerm;51039;49.696;10.808;2023-09-07T19:57:16;44.68;43.23;47.03;;
64077;Laerm;51039;49.696;10.808;2023-09-07T19:59:41;44.71;43.26;47.35;;
64077;Laerm;51039;49.696;10.808;2023-09-07T20:02:07;44.74;43.38;47.36;;
64077;Laerm;51039;49.696;10.808;2023-09-07T20:04:32;44.77;43.42;48.11;;
64077;Laerm;51039;49.696;10.808;2023-09-07T20:06:58;44.80;43.45;47.09;;
64077;Laerm;51039;49.696;10.808;2023-09-07T20:09:23;44.86;43.42;47.79;;
64077;Laerm;51039;49.696;10.808;2023-09-07T20:11:50;44.87;43.42;46.35;;
64077;Laerm;51039;49.696;10.808;2023-09-07T20:14:17;44.92;43.61;48.72;;
64077;Laerm;51039;49.696;10.808;2023-09-07T20:16:44;44.96;43.75;48.64;;
64077;Laerm;51039;49.696;10.808;2023-09-07T20:19:09;44.97;43.57;46.34;;
64077;Laerm;51039;49.696;10.808;2023-09-07T20:21:34;44.98;43.74;47.73;;
64077;Laerm;51039;49.696;10.808;2023-09-07T20:24:00;45.01;43.66;49.08;;
64077;Laerm;51039;49.696;10.808;2023-09-07T20:26:25;45.03;43.67;47.54;;
64077;Laerm;51039;49.696;10.808;2023-09-07T20:28:51;45.05;43.72;48.18;;
64077;Laerm;51039;49.696;10.808;2023-09-07T20:31:18;45.08;43.58;49.62;;
64077;Laerm;51039;49.696;10.808;2023-09-07T20:33:43;45.07;43.68;48.95;;
64077;Laerm;51039;49.696;10.808;2023-09-07T20:36:09;45.07;43.83;48.82;;
64077;Laerm;51039;49.696;10.808;2023-09-07T20:38:35;45.09;43.73;49.26;;
64077;Laerm;51039;49.696;10.808;2023-09-07T20:41:00;45.51;43.67;51.14;;
64077;Laerm;51039;49.696;10.808;2023-09-07T20:43:26;45.37;43.66;50.81;;
64077;Laerm;51039;49.696;10.808;2023-09-07T20:45:52;45.56;43.96;50.91;;
64077;Laerm;51039;49.696;10.808;2023-09-07T20:48:18;45.54;43.83;51.92;;
64077;Laerm;51039;49.696;10.808;2023-09-07T20:50:44;45.61;43.94;51.03;;
64077;Laerm;51039;49.696;10.808;2023-09-07T20:53:10;45.40;44.01;51.06;;
64077;Laerm;51039;49.696;10.808;2023-09-07T20:55:35;45.12;43.59;49.32;;
64077;Laerm;51039;49.696;10.808;2023-09-07T20:58:01;45.09;43.84;47.99;;
64077;Laerm;51039;49.696;10.808;2023-09-07T21:00:26;45.06;43.88;48.68;;
64077;Laerm;51039;49.696;10.808;2023-09-07T21:02:51;45.02;43.70;48.30;;
64077;Laerm;51039;49.696;10.808;2023-09-07T21:05:17;44.98;43.71;48.68;;